Time;durP1;ratioP1;P1;durP2;ratioP2;P2;SDS_P1;SDS_P2;PMS_P1;PMS_P2;Temp;Humidity;BMP_temperature;BMP_pressure;BME280_temperature;BME280_humidity;BME280_pressure;Samples;Min_cycle;Max_cycle;Signal;HPM_P1;HPM_P2
2021/12/04 00:01:11;;;;;;;7.05;6.28;;;1.20;99.90;;;;;;5080110;28;20257;-54
2021/12/04 00:03:40;;;;;;;5.50;5.00;;;1.10;99.90;;;;;;5079857;28;20509;-51
2021/12/04 00:06:15;;;;;;;6.10;4.50;;;1.00;99.90;;;;;;5079775;28;20264;-58
2021/12/04 00:08:45;;;;;;;8.70;5.03;;;1.00;99.90;;;;;;5074351;28;20198;-55
2021/12/04 00:11:13;;;;;;;8.27;4.40;;;1.00;99.90;;;;;;5072062;28;20266;-55
2021/12/04 00:13:40;;;;;;;9.35;5.57;;;0.90;99.90;;;;;;5059533;28;20218;-56
2021/12/04 00:16:08;;;;;;;9.57;4.85;;;1.00;99.90;;;;;;5059513;28;20203;-55
2021/12/04 00:18:35;;;;;;;8.13;5.00;;;1.00;99.90;;;;;;5059652;28;20196;-56
2021/12/04 00:21:03;;;;;;;5.40;3.97;;;1.00;99.90;;;;;;5059660;28;20223;-54
2021/12/04 00:23:30;;;;;;;6.13;4.88;;;1.00;99.90;;;;;;5059611;28;20394;-52
2021/12/04 00:25:58;;;;;;;6.35;4.50;;;1.00;99.90;;;;;;5059087;28;20257;-51
2021/12/04 00:28:25;;;;;;;4.60;3.83;;;1.10;99.90;;;;;;5042024;28;20206;-57
2021/12/04 00:30:53;;;;;;;4.22;3.67;;;1.10;99.90;;;;;;5058880;28;20223;-52
2021/12/04 00:33:25;;;;;;;6.15;4.65;;;1.10;99.90;;;;;;5059976;28;20199;-53
2021/12/04 00:35:58;;;;;;;5.20;4.50;;;1.00;99.90;;;;;;5059671;28;20245;-55
2021/12/04 00:49:39;;;;;;;7.57;4.93;;;1.20;99.90;;;;;;4999168;28;20225;-52
2021/12/04 00:52:06;;;;;;;4.78;3.63;;;1.40;99.90;;;;;;4998720;28;20222;-53
2021/12/04 00:54:34;;;;;;;9.15;4.53;;;1.40;99.90;;;;;;5027537;28;20195;-56
2021/12/04 00:57:01;;;;;;;4.95;4.30;;;1.50;99.90;;;;;;5059242;28;20196;-51
2021/12/04 00:59:28;;;;;;;7.22;4.30;;;1.40;99.90;;;;;;5059283;28;20195;-56
2021/12/04 01:01:56;;;;;;;8.10;5.13;;;1.60;99.90;;;;;;5059535;28;20433;-52
2021/12/04 01:04:23;;;;;;;5.97;5.00;;;1.70;99.90;;;;;;5060475;28;20266;-55
2021/12/04 01:06:51;;;;;;;9.95;6.07;;;1.70;99.90;;;;;;5063228;28;20249;-54
2021/12/04 01:09:21;;;;;;;8.35;5.25;;;1.50;99.90;;;;;;5062482;28;20207;-53
2021/12/04 01:11:49;;;;;;;4.95;4.07;;;1.40;99.90;;;;;;5062929;28;20285;-53
2021/12/04 01:14:20;;;;;;;9.85;5.60;;;1.30;99.90;;;;;;5062860;28;20506;-56
2021/12/04 01:16:48;;;;;;;5.90;4.57;;;1.20;99.90;;;;;;5062760;28;20225;-56
2021/12/04 01:19:19;;;;;;;5.40;4.50;;;1.10;99.90;;;;;;5062462;28;20241;-56
2021/12/04 01:21:48;;;;;;;9.55;4.72;;;1.10;99.90;;;;;;5062283;28;20414;-54
2021/12/04 01:24:15;;;;;;;6.40;4.55;;;1.10;99.90;;;;;;5064372;28;20226;-56
2021/12/04 01:26:43;;;;;;;6.03;4.88;;;1.20;99.90;;;;;;5064885;28;20195;-53
2021/12/04 01:29:10;;;;;;;7.75;5.88;;;1.20;99.90;;;;;;5065542;28;20250;-56
2021/12/04 01:31:37;;;;;;;7.38;4.72;;;1.20;99.90;;;;;;5062537;28;20227;-52
2021/12/04 01:34:05;;;;;;;5.68;5.18;;;1.20;99.90;;;;;;5063049;28;20237;-52
2021/12/04 01:36:33;;;;;;;8.20;6.07;;;1.20;99.90;;;;;;5062114;28;20192;-56
2021/12/04 01:39:01;;;;;;;7.50;5.82;;;1.20;99.90;;;;;;5062655;28;20199;-54
2021/12/04 01:41:28;;;;;;;7.85;4.38;;;1.20;99.90;;;;;;5062246;28;20223;-56
2021/12/04 01:44:00;;;;;;;6.30;5.10;;;1.30;99.90;;;;;;5062063;28;20199;-53
2021/12/04 01:46:28;;;;;;;6.47;4.70;;;1.30;99.90;;;;;;5062000;28;20208;-54
2021/12/04 01:48:56;;;;;;;8.05;4.95;;;1.30;99.90;;;;;;5062128;28;20433;-54
2021/12/04 01:51:23;;;;;;;6.60;4.95;;;1.50;99.90;;;;;;5063250;28;20494;-55
2021/12/04 01:53:51;;;;;;;10.82;6.90;;;1.50;99.90;;;;;;5064613;28;20195;-55
2021/12/04 01:56:18;;;;;;;4.95;4.47;;;1.50;99.90;;;;;;5068679;28;20199;-53
2021/12/04 01:58:46;;;;;;;10.23;6.00;;;1.50;99.90;;;;;;5073486;28;20195;-56
2021/12/04 02:01:13;;;;;;;5.03;4.10;;;1.50;99.90;;;;;;5082590;28;20260;-51
2021/12/04 02:03:41;;;;;;;5.80;3.65;;;1.50;99.90;;;;;;5064463;28;20199;-52
2021/12/04 02:06:08;;;;;;;5.25;4.00;;;1.40;99.90;;;;;;5081888;28;20254;-54
2021/12/04 02:08:35;;;;;;;5.63;4.32;;;1.50;99.90;;;;;;5081919;28;20221;-56
2021/12/04 02:11:03;;;;;;;9.90;5.22;;;1.40;99.90;;;;;;5081660;28;20227;-52
2021/12/04 02:13:30;;;;;;;8.35;4.75;;;1.50;99.90;;;;;;5081759;28;20316;-53
2021/12/04 02:16:02;;;;;;;5.07;4.40;;;1.60;99.90;;;;;;5081255;28;20202;-54
2021/12/04 02:18:29;;;;;;;4.15;3.72;;;1.60;99.90;;;;;;5081777;28;20195;-54
2021/12/04 02:20:57;;;;;;;6.20;5.05;;;1.60;99.90;;;;;;5081325;28;20253;-53
2021/12/04 02:23:24;;;;;;;6.32;3.85;;;1.60;99.90;;;;;;5081582;28;20199;-52
2021/12/04 02:25:51;;;;;;;7.28;4.30;;;1.60;99.90;;;;;;5081420;28;20206;-53
2021/12/04 02:28:18;;;;;;;7.05;4.03;;;1.60;99.90;;;;;;5081974;28;20198;-52
2021/12/04 02:30:48;;;;;;;5.20;4.28;;;1.70;99.90;;;;;;5082890;28;20566;-53
2021/12/04 02:33:16;;;;;;;7.72;5.50;;;1.60;99.90;;;;;;5082562;28;20202;-53
2021/12/04 02:35:50;;;;;;;5.50;3.85;;;1.60;99.90;;;;;;5081595;28;20397;-53
2021/12/04 02:38:23;;;;;;;4.55;3.97;;;1.70;99.90;;;;;;5080774;28;20509;-53
2021/12/04 02:40:53;;;;;;;6.55;4.28;;;1.70;99.90;;;;;;5084120;28;20242;-58
2021/12/04 02:43:20;;;;;;;6.65;4.80;;;1.80;99.90;;;;;;5082942;28;20394;-56
2021/12/04 02:45:48;;;;;;;5.40;4.25;;;1.90;99.90;;;;;;5081169;28;20252;-54
2021/12/04 02:48:16;;;;;;;6.35;4.57;;;1.90;99.90;;;;;;5080877;28;20245;-56
2021/12/04 02:50:44;;;;;;;8.40;4.40;;;1.90;99.90;;;;;;5080726;28;20314;-52
2021/12/04 02:53:11;;;;;;;8.30;4.07;;;2.00;99.90;;;;;;5080777;28;20564;-54
2021/12/04 02:55:40;;;;;;;10.02;3.75;;;2.00;99.90;;;;;;5081126;28;20202;-52
2021/12/04 02:58:07;;;;;;;5.70;4.43;;;2.00;99.90;;;;;;5080909;28;20248;-55
2021/12/04 03:00:41;;;;;;;4.22;3.50;;;2.10;99.90;;;;;;5080657;28;20227;-57
2021/12/04 03:03:09;;;;;;;4.63;4.20;;;2.10;99.90;;;;;;5083358;28;20221;-56
2021/12/04 03:05:36;;;;;;;7.72;3.70;;;2.00;99.90;;;;;;5081899;28;20249;-57
2021/12/04 03:08:06;;;;;;;5.80;3.88;;;2.10;99.90;;;;;;5081640;28;20199;-55
2021/12/04 03:10:34;;;;;;;4.20;2.53;;;2.00;99.90;;;;;;5080449;28;20223;-57
2021/12/04 03:13:01;;;;;;;3.33;3.03;;;2.00;99.90;;;;;;5080799;28;20203;-56
2021/12/04 03:15:28;;;;;;;6.20;4.10;;;2.10;99.90;;;;;;5080348;28;20194;-52
2021/12/04 03:17:56;;;;;;;5.40;3.80;;;2.00;99.90;;;;;;5080092;28;20285;-53
2021/12/04 03:20:23;;;;;;;3.90;3.47;;;2.00;99.90;;;;;;5080430;28;20549;-53
2021/12/04 03:22:55;;;;;;;5.80;3.55;;;2.10;99.90;;;;;;5080526;28;20237;-57
2021/12/04 03:25:22;;;;;;;4.10;2.88;;;2.30;99.90;;;;;;5081221;28;20381;-56
2021/12/04 03:27:51;;;;;;;5.43;3.42;;;2.10;99.90;;;;;;5079946;28;20245;-57
2021/12/04 03:30:41;;;;;;;4.38;3.67;;;2.00;99.90;;;;;;5081109;28;20222;-53
2021/12/04 03:41:19;;;;;;;7.05;4.13;;;2.20;99.90;;;;;;5080626;28;20222;-57
2021/12/04 03:43:47;;;;;;;3.67;3.15;;;2.00;99.90;;;;;;5079908;28;20244;-56
2021/12/04 03:46:15;;;;;;;19.38;4.95;;;2.10;99.90;;;;;;5080123;28;20199;-56
2021/12/04 03:51:10;;;;;;;9.65;3.75;;;2.10;99.90;;;;;;5080015;28;20222;-53
2021/12/04 03:53:37;;;;;;;5.70;3.25;;;2.00;99.90;;;;;;5079892;28;20195;-55
2021/12/04 03:56:05;;;;;;;4.68;3.20;;;2.00;99.90;;;;;;5080079;28;20211;-55
2021/12/04 03:58:33;;;;;;;5.95;3.17;;;1.90;99.90;;;;;;5063366;28;20195;-57
2021/12/04 04:01:00;;;;;;;4.65;2.95;;;2.10;99.90;;;;;;5080437;28;20269;-54
2021/12/04 04:03:28;;;;;;;3.60;3.30;;;2.20;99.90;;;;;;5079649;28;20209;-54
2021/12/04 04:05:55;;;;;;;3.20;2.90;;;2.00;99.90;;;;;;5061974;28;20202;-53
2021/12/04 04:08:22;;;;;;;5.05;3.47;;;2.00;99.90;;;;;;5079818;28;20202;-55
2021/12/04 04:10:53;;;;;;;2.90;2.70;;;1.90;99.90;;;;;;5080501;28;20226;-52
2021/12/04 04:13:21;;;;;;;7.45;3.25;;;1.90;99.90;;;;;;5081007;28;20203;-54
2021/12/04 04:15:48;;;;;;;4.55;3.17;;;1.90;99.90;;;;;;5079545;28;20619;-56
2021/12/04 04:18:16;;;;;;;2.88;2.45;;;1.80;99.90;;;;;;5079567;28;20202;-55
2021/12/04 04:20:44;;;;;;;3.50;2.90;;;2.00;99.90;;;;;;5079268;28;20218;-52
2021/12/04 04:23:11;;;;;;;6.40;4.05;;;2.00;99.90;;;;;;5079894;28;20210;-55
2021/12/04 04:25:39;;;;;;;3.47;2.80;;;1.90;99.90;;;;;;5079560;28;20203;-56
2021/12/04 04:28:06;;;;;;;4.28;3.20;;;1.90;99.90;;;;;;5079487;28;20203;-55
2021/12/04 04:30:33;;;;;;;5.32;2.47;;;1.90;99.90;;;;;;5079237;28;20607;-54
2021/12/04 04:33:01;;;;;;;4.43;3.30;;;1.90;99.90;;;;;;5079247;28;20390;-57
2021/12/04 04:35:31;;;;;;;4.53;3.13;;;1.90;99.90;;;;;;5079589;28;20199;-55
2021/12/04 05:13:05;;;;;;;4.18;2.65;;;1.90;99.90;;;;;;5083304;28;20203;-56
2021/12/04 05:15:45;;;;;;;3.38;2.15;;;1.90;99.90;;;;;;5082793;28;20225;-57
2021/12/04 05:21:06;;;;;;;3.22;1.90;;;1.90;99.90;;;;;;5080250;28;20516;-54
2021/12/04 05:23:38;;;;;;;3.78;2.47;;;1.90;99.90;;;;;;5074502;28;20195;-55
2021/12/04 05:26:09;;;;;;;4.40;3.00;;;1.80;99.90;;;;;;5084726;28;20191;-57
2021/12/04 05:28:36;;;;;;;2.88;2.65;;;1.80;99.90;;;;;;5090427;28;20555;-58
2021/12/04 05:31:03;;;;;;;3.05;2.33;;;1.70;99.90;;;;;;5069038;28;20227;-55
2021/12/04 05:33:31;;;;;;;3.33;3.03;;;1.70;99.90;;;;;;5085446;28;20202;-59
2021/12/04 05:35:58;;;;;;;5.32;3.35;;;1.70;99.90;;;;;;5087196;28;20252;-55
2021/12/04 05:38:26;;;;;;;4.55;3.33;;;1.80;99.90;;;;;;5084520;28;20211;-60
2021/12/04 05:40:54;;;;;;;2.70;2.35;;;1.70;99.90;;;;;;5086530;28;20223;-57
2021/12/04 05:43:25;;;;;;;3.95;2.67;;;1.60;99.90;;;;;;5086937;28;20199;-55
2021/12/04 05:46:04;;;;;;;3.85;3.45;;;1.70;99.90;;;;;;5083527;28;20222;-58
2021/12/04 05:48:48;;;;;;;3.88;2.78;;;1.70;99.90;;;;;;5082987;28;20226;-58
2021/12/04 05:56:15;;;;;;;3.58;2.53;;;1.80;99.90;;;;;;5082984;28;20464;-54
2021/12/04 05:58:42;;;;;;;4.50;2.65;;;1.90;99.90;;;;;;5084269;28;20207;-56
2021/12/04 06:01:10;;;;;;;2.65;2.20;;;1.90;99.90;;;;;;5084754;28;20268;-57
2021/12/04 06:03:37;;;;;;;6.05;3.83;;;1.90;99.90;;;;;;5083561;28;20480;-56
2021/12/04 06:06:04;;;;;;;4.82;3.20;;;1.90;99.90;;;;;;5083180;28;20203;-58
2021/12/04 06:08:32;;;;;;;5.70;3.78;;;1.90;99.90;;;;;;5083154;28;20199;-57
2021/12/04 06:10:59;;;;;;;7.32;3.13;;;2.00;99.90;;;;;;5082438;28;20218;-54
2021/12/04 06:13:27;;;;;;;6.75;2.75;;;2.10;99.90;;;;;;5082620;28;20199;-56
2021/12/04 06:15:55;;;;;;;2.80;2.33;;;2.10;99.90;;;;;;5082131;28;20371;-54
2021/12/04 06:18:23;;;;;;;5.47;3.17;;;2.20;99.90;;;;;;5081895;28;20549;-58
2021/12/04 06:23:36;;;;;;;4.00;2.70;;;2.20;99.90;;;;;;5081887;28;20509;-52
2021/12/04 06:26:07;;;;;;;4.53;2.80;;;2.10;99.90;;;;;;5081734;28;20248;-57
2021/12/04 06:28:35;;;;;;;3.72;3.28;;;2.10;99.90;;;;;;5063688;28;20207;-55
2021/12/04 06:31:03;;;;;;;4.85;3.00;;;2.00;99.90;;;;;;5081834;28;20226;-57
2021/12/04 06:33:30;;;;;;;5.55;4.20;;;2.00;99.90;;;;;;5082059;28;20211;-55
2021/12/04 06:35:57;;;;;;;4.82;3.60;;;2.00;99.90;;;;;;5082132;28;20551;-56
2021/12/04 06:38:25;;;;;;;3.10;2.70;;;2.10;99.90;;;;;;5081326;28;20528;-53
2021/12/04 06:40:54;;;;;;;4.15;3.15;;;2.00;99.90;;;;;;5081341;28;20318;-55
2021/12/04 06:43:22;;;;;;;4.10;3.70;;;2.00;99.90;;;;;;5081594;28;20199;-57
2021/12/04 06:45:58;;;;;;;4.05;3.58;;;1.90;99.90;;;;;;5081835;28;20425;-56
2021/12/04 06:48:36;;;;;;;8.38;3.75;;;1.80;99.90;;;;;;5081193;28;20226;-54
2021/12/04 06:53:50;;;;;;;5.03;4.00;;;1.70;99.90;;;;;;5081319;28;20252;-55
2021/12/04 06:56:19;;;;;;;7.22;4.95;;;1.60;99.90;;;;;;5080968;28;20202;-54
2021/12/04 06:58:46;;;;;;;7.28;4.28;;;1.70;99.90;;;;;;5080936;28;20206;-53
2021/12/04 07:01:14;;;;;;;6.18;4.28;;;1.70;99.90;;;;;;5079594;28;20273;-56
2021/12/04 07:03:42;;;;;;;4.93;4.22;;;1.60;99.90;;;;;;5080890;28;20252;-54
2021/12/04 07:06:09;;;;;;;10.30;4.88;;;1.50;99.90;;;;;;5080967;28;20199;-54
2021/12/04 07:08:36;;;;;;;6.35;3.92;;;1.60;99.90;;;;;;5080499;28;20526;-56
2021/12/04 07:11:05;;;;;;;5.03;3.67;;;1.60;99.90;;;;;;5080450;28;20463;-54
2021/12/04 07:13:33;;;;;;;6.03;4.10;;;1.70;99.90;;;;;;5080648;28;20199;-58
2021/12/04 07:16:05;;;;;;;6.25;3.95;;;1.70;99.90;;;;;;5080663;28;20244;-58
2021/12/04 07:18:34;;;;;;;7.30;4.40;;;1.90;99.90;;;;;;5080381;28;20260;-58
2021/12/04 07:21:02;;;;;;;7.80;4.30;;;1.70;99.90;;;;;;5080496;28;20595;-56
2021/12/04 07:23:29;;;;;;;6.35;4.38;;;1.80;99.90;;;;;;5080193;28;20199;-53
2021/12/04 07:25:57;;;;;;;9.50;4.93;;;1.80;99.90;;;;;;5062882;28;20257;-53
2021/12/04 07:28:24;;;;;;;5.40;4.50;;;1.90;99.90;;;;;;5066012;28;20196;-54
2021/12/04 07:30:53;;;;;;;8.65;4.72;;;1.90;99.90;;;;;;5064386;28;20278;-53
2021/12/04 07:33:20;;;;;;;4.53;4.07;;;2.00;99.90;;;;;;5069366;28;20459;-57
2021/12/04 07:35:48;;;;;;;5.72;4.60;;;2.00;99.90;;;;;;5060785;28;20199;-55
2021/12/04 07:38:15;;;;;;;4.97;4.47;;;2.10;99.90;;;;;;5062761;28;20202;-57
2021/12/04 07:40:43;;;;;;;8.32;6.82;;;2.10;99.90;;;;;;5060254;28;20223;-59
2021/12/04 07:43:11;;;;;;;22.52;11.07;;;2.20;99.90;;;;;;5062154;28;20203;-52
2021/12/04 07:45:39;;;;;;;16.20;10.52;;;2.30;99.90;;;;;;5067027;28;20252;-56
2021/12/04 07:48:06;;;;;;;12.27;8.10;;;2.30;99.90;;;;;;5064778;28;20226;-60
2021/12/04 07:50:35;;;;;;;13.80;7.65;;;2.30;99.90;;;;;;5068258;28;20250;-57
2021/12/04 07:53:03;;;;;;;11.55;7.95;;;2.40;99.90;;;;;;5069083;28;20246;-55
2021/12/04 07:55:31;;;;;;;14.82;5.93;;;2.40;99.90;;;;;;5065696;28;20262;-55
2021/12/04 07:57:59;;;;;;;8.48;7.05;;;2.40;99.90;;;;;;5065170;28;20200;-55
2021/12/04 08:00:27;;;;;;;7.00;5.18;;;2.40;99.90;;;;;;5055941;28;20219;-57
2021/12/04 08:02:55;;;;;;;5.63;5.13;;;2.40;99.90;;;;;;5072419;28;20202;-55
2021/12/04 08:05:22;;;;;;;9.75;5.95;;;2.40;99.90;;;;;;5071720;28;20439;-53
2021/12/04 08:07:50;;;;;;;5.65;4.65;;;2.50;99.90;;;;;;5053476;28;20206;-56
2021/12/04 08:10:19;;;;;;;8.23;4.90;;;2.50;99.90;;;;;;5069424;28;21379;-58
2021/12/04 08:12:47;;;;;;;12.43;5.10;;;2.60;99.90;;;;;;5068884;28;20227;-57
2021/12/04 08:15:16;;;;;;;6.57;5.03;;;2.60;99.90;;;;;;5070674;28;20196;-57
2021/12/04 08:17:44;;;;;;;5.47;4.30;;;2.50;99.90;;;;;;5063868;28;20301;-56
2021/12/04 08:20:13;;;;;;;6.00;4.45;;;2.60;99.90;;;;;;5067701;28;20433;-58
2021/12/04 08:22:41;;;;;;;7.38;4.45;;;2.70;99.90;;;;;;5071100;28;20198;-57
2021/12/04 08:25:10;;;;;;;7.47;5.43;;;2.80;99.90;;;;;;5064542;28;20199;-55
2021/12/04 08:27:38;;;;;;;8.32;4.90;;;2.80;99.90;;;;;;5066693;28;20338;-57
2021/12/04 08:30:09;;;;;;;7.22;4.53;;;2.80;99.90;;;;;;5063238;28;20204;-58
2021/12/04 08:32:37;;;;;;;4.95;4.45;;;2.70;99.90;;;;;;5067537;28;20225;-58
2021/12/04 08:35:06;;;;;;;7.75;4.55;;;2.70;99.90;;;;;;5064292;28;20196;-55
2021/12/04 08:37:33;;;;;;;7.78;4.40;;;2.90;99.90;;;;;;5068796;28;20200;-58
2021/12/04 08:40:01;;;;;;;7.45;4.28;;;2.90;99.90;;;;;;5070708;28;20195;-60
2021/12/04 08:42:28;;;;;;;9.20;4.50;;;3.00;99.90;;;;;;5070752;28;20200;-57
2021/12/04 08:44:56;;;;;;;6.15;4.35;;;3.00;99.90;;;;;;5068010;28;20214;-55
2021/12/04 08:47:23;;;;;;;11.80;5.00;;;3.10;99.90;;;;;;5049291;28;20543;-57
2021/12/04 08:49:50;;;;;;;9.52;5.25;;;3.20;99.90;;;;;;5073289;28;20488;-56
2021/12/04 08:52:18;;;;;;;16.40;4.40;;;3.30;99.90;;;;;;5076023;28;20232;-60
2021/12/04 08:54:46;;;;;;;5.32;4.15;;;3.30;99.90;;;;;;5069442;28;20227;-55
2021/12/04 08:57:13;;;;;;;7.05;4.05;;;3.40;99.90;;;;;;5053882;28;20201;-56
2021/12/04 08:59:41;;;;;;;7.90;4.07;;;3.40;99.90;;;;;;5076574;28;20364;-54
2021/12/04 09:02:10;;;;;;;6.85;4.78;;;3.50;99.90;;;;;;5073591;28;20220;-57
2021/12/04 09:04:39;;;;;;;3.92;2.75;;;3.70;99.90;;;;;;5079944;28;20217;-59
2021/12/04 09:07:07;;;;;;;9.07;3.58;;;3.50;99.90;;;;;;5077951;28;20204;-58
2021/12/04 09:09:34;;;;;;;4.28;3.78;;;3.40;99.90;;;;;;5075940;28;20402;-56
2021/12/04 09:12:24;;;;;;;16.00;5.32;;;3.40;99.90;;;;;;5072125;28;20295;-53
2021/12/04 09:14:53;;;;;;;5.25;3.20;;;3.60;99.90;;;;;;5079799;28;20202;-59
2021/12/04 09:17:21;;;;;;;7.35;4.28;;;3.60;99.90;;;;;;5074669;28;20218;-55
2021/12/04 09:19:50;;;;;;;5.78;4.25;;;3.70;99.90;;;;;;5076323;28;20211;-56
2021/12/04 09:22:32;;;;;;;2.90;2.65;;;3.70;99.90;;;;;;5079693;28;20231;-57
2021/12/04 09:25:12;;;;;;;4.07;2.45;;;3.70;99.90;;;;;;5061025;28;20192;-60
2021/12/04 09:36:17;;;;;;;7.60;3.38;;;4.00;99.90;;;;;;5066468;28;20510;-62
2021/12/04 10:21:07;;;;;;;6.32;3.25;;;4.10;99.90;;;;;;5045096;28;20249;-60
2021/12/04 10:34:41;;;;;;;7.03;3.35;;;4.10;99.90;;;;;;5063741;28;20251;-62
2021/12/04 10:37:12;;;;;;;4.60;3.67;;;4.20;99.90;;;;;;5068230;28;20225;-58
2021/12/04 10:39:40;;;;;;;4.60;3.13;;;4.30;99.90;;;;;;5060101;28;20205;-64
2021/12/04 10:42:14;;;;;;;5.25;3.00;;;4.30;99.90;;;;;;5063787;28;20429;-60
2021/12/04 10:44:48;;;;;;;8.18;4.72;;;4.20;99.90;;;;;;5060337;28;20399;-57
2021/12/04 10:47:22;;;;;;;6.22;4.18;;;4.10;99.90;;;;;;5063512;28;20336;-62
2021/12/04 10:50:08;;;;;;;5.75;3.65;;;4.00;99.90;;;;;;5063447;28;20527;-58
2021/12/04 11:43:03;;;;;;;9.23;6.00;;;4.90;99.90;;;;;;5065515;28;20238;-63
2021/12/04 11:45:44;;;;;;;9.95;7.40;;;4.80;99.90;;;;;;5042496;28;20214;-62
2021/12/04 11:48:12;;;;;;;9.23;7.13;;;4.60;99.90;;;;;;5059418;28;20198;-56
2021/12/04 11:50:42;;;;;;;10.50;6.18;;;4.80;99.90;;;;;;5063051;28;20218;-58
2021/12/04 11:53:17;;;;;;;10.82;6.13;;;4.80;99.90;;;;;;5061211;28;20271;-59
2021/12/04 11:55:47;;;;;;;11.50;6.15;;;4.60;99.90;;;;;;5063988;28;20198;-60
2021/12/04 11:58:24;;;;;;;10.05;5.70;;;4.50;99.90;;;;;;5063804;28;20382;-60
2021/12/04 12:00:57;;;;;;;13.95;7.72;;;4.40;99.90;;;;;;5063272;28;20236;-57
2021/12/04 12:03:31;;;;;;;16.35;8.38;;;4.50;99.90;;;;;;5061337;28;20240;-60
2021/12/04 12:06:05;;;;;;;14.43;8.68;;;4.50;99.90;;;;;;5061087;28;20409;-62
2021/12/04 12:08:33;;;;;;;16.55;9.18;;;4.70;99.90;;;;;;5060690;28;20206;-63
2021/12/04 12:11:02;;;;;;;16.50;8.65;;;4.60;99.90;;;;;;5060031;28;20495;-60
2021/12/04 12:13:44;;;;;;;17.95;9.40;;;4.60;99.90;;;;;;5060068;28;20249;-57
2021/12/04 12:16:16;;;;;;;16.15;9.77;;;4.40;99.90;;;;;;5065984;28;20205;-56
2021/12/04 12:18:51;;;;;;;17.75;8.75;;;4.30;99.90;;;;;;5062148;28;20205;-57
2021/12/04 12:21:24;;;;;;;15.57;9.00;;;4.30;99.90;;;;;;5060110;28;20258;-60
2021/12/04 12:33:21;;;;;;;14.27;9.20;;;4.40;99.90;;;;;;5065678;28;20606;-58
2021/12/04 12:36:04;;;;;;;11.07;7.57;;;4.40;99.90;;;;;;5062271;28;20202;-58
2021/12/04 12:38:48;;;;;;;17.98;9.82;;;4.50;99.90;;;;;;5059906;28;20197;-63
2021/12/04 12:41:37;;;;;;;11.20;6.57;;;4.40;99.90;;;;;;5067612;28;20277;-57
2021/12/04 12:44:23;;;;;;;12.90;6.30;;;4.50;99.90;;;;;;5059292;28;20210;-57
2021/12/04 12:46:56;;;;;;;13.48;6.70;;;4.50;99.90;;;;;;5060569;28;20224;-56
2021/12/04 12:49:28;;;;;;;16.27;9.15;;;4.50;99.90;;;;;;5060368;28;20201;-57
2021/12/04 12:52:13;;;;;;;15.95;8.65;;;4.50;99.90;;;;;;5059305;28;20230;-58
2021/12/04 12:54:43;;;;;;;18.15;7.78;;;4.60;99.90;;;;;;5059886;28;20500;-61
2021/12/04 12:57:44;;;;;;;11.38;7.95;;;4.50;99.90;;;;;;5059294;28;20214;-63
2021/12/04 13:11:50;;;;;;;10.52;6.75;;;4.50;99.90;;;;;;5064785;28;20242;-60
2021/12/04 13:14:17;;;;;;;9.45;6.65;;;4.60;99.90;;;;;;5064570;28;20222;-57
2021/12/04 13:16:59;;;;;;;10.18;6.38;;;4.50;99.90;;;;;;5065519;28;20561;-57
2021/12/04 13:19:27;;;;;;;11.32;7.22;;;4.50;99.90;;;;;;5064271;28;20225;-61
2021/12/04 13:22:00;;;;;;;13.98;9.52;;;4.40;99.90;;;;;;5065202;28;20222;-61
2021/12/04 13:24:31;;;;;;;8.80;6.72;;;4.20;99.90;;;;;;5066009;28;20423;-60
2021/12/04 13:29:44;;;;;;;11.68;6.65;;;4.20;99.90;;;;;;5067416;28;20212;-59
2021/12/04 13:32:14;;;;;;;12.80;8.40;;;4.00;99.90;;;;;;5065525;28;20237;-55
2021/12/04 13:34:43;;;;;;;12.50;6.90;;;4.00;99.90;;;;;;5064655;28;20244;-63
2021/12/04 13:37:12;;;;;;;13.25;7.75;;;4.00;99.90;;;;;;5067985;28;20466;-54
2021/12/04 13:39:45;;;;;;;16.55;8.10;;;4.00;99.90;;;;;;5068696;28;20234;-55
2021/12/04 13:42:18;;;;;;;10.55;7.85;;;4.10;99.90;;;;;;5059550;28;20226;-60
2021/12/04 13:44:45;;;;;;;16.17;8.02;;;4.10;99.90;;;;;;5061358;28;20209;-56
2021/12/04 13:47:12;;;;;;;15.50;7.93;;;4.10;99.90;;;;;;5066682;28;20205;-59
2021/12/04 13:49:54;;;;;;;10.02;7.55;;;4.00;99.90;;;;;;5075999;28;20224;-56
2021/12/04 13:52:22;;;;;;;13.13;6.78;;;4.00;99.90;;;;;;5076699;28;20264;-56
2021/12/04 13:54:54;;;;;;;11.27;7.32;;;3.90;99.90;;;;;;5076853;28;20225;-54
2021/12/04 13:57:21;;;;;;;14.40;8.90;;;3.90;99.90;;;;;;5070912;28;20246;-62
2021/12/04 13:59:48;;;;;;;13.00;8.60;;;3.90;99.90;;;;;;5069915;28;20293;-60
2021/12/04 14:02:22;;;;;;;10.48;7.57;;;3.90;99.90;;;;;;5063820;28;20300;-59
2021/12/04 14:04:57;;;;;;;14.77;8.23;;;3.80;99.90;;;;;;5066452;28;20201;-57
2021/12/04 14:07:24;;;;;;;12.32;7.78;;;3.70;99.90;;;;;;5068743;28;20367;-56
2021/12/04 14:09:52;;;;;;;12.73;7.55;;;3.70;99.90;;;;;;5072067;28;20230;-60
2021/12/04 14:12:19;;;;;;;18.58;7.15;;;3.60;99.90;;;;;;5080875;28;20222;-54
2021/12/04 14:14:46;;;;;;;12.20;8.57;;;3.60;99.90;;;;;;5074541;28;20392;-57
2021/12/04 14:17:16;;;;;;;12.52;8.23;;;3.70;99.90;;;;;;5074519;28;20197;-59
2021/12/04 14:19:45;;;;;;;11.07;8.00;;;3.80;99.90;;;;;;5063026;28;20566;-55
2021/12/04 14:22:17;;;;;;;12.27;8.60;;;3.70;99.90;;;;;;5065435;28;20538;-54
2021/12/04 14:24:52;;;;;;;13.43;9.23;;;3.60;99.90;;;;;;5062991;28;20205;-57
2021/12/04 14:27:28;;;;;;;18.02;9.15;;;3.60;99.90;;;;;;5062742;28;20220;-59
2021/12/04 14:30:16;;;;;;;21.33;9.23;;;3.50;99.90;;;;;;5061898;28;20369;-57
2021/12/04 14:32:52;;;;;;;13.55;8.93;;;3.50;99.90;;;;;;5062394;28;20519;-57
2021/12/04 14:35:21;;;;;;;16.90;8.85;;;3.40;99.90;;;;;;5064934;28;20249;-58
2021/12/04 14:37:55;;;;;;;17.70;8.93;;;3.50;99.90;;;;;;5065471;28;20503;-54
2021/12/04 14:41:11;;;;;;;11.05;8.75;;;3.50;99.90;;;;;;5064363;28;20457;-57
2021/12/04 14:43:40;;;;;;;14.98;8.77;;;3.50;99.90;;;;;;5046349;28;20220;-57
2021/12/04 14:46:13;;;;;;;11.77;9.38;;;3.40;99.90;;;;;;5065699;28;20201;-57
2021/12/04 14:48:48;;;;;;;13.10;10.30;;;3.40;99.90;;;;;;5064859;28;20207;-56
2021/12/04 14:51:21;;;;;;;19.17;9.98;;;3.30;99.90;;;;;;5063416;28;20312;-58
2021/12/04 14:53:54;;;;;;;14.10;9.65;;;3.30;99.90;;;;;;5064510;28;20216;-58
2021/12/04 14:56:25;;;;;;;19.52;10.25;;;3.30;99.90;;;;;;5063881;28;20196;-53
2021/12/04 14:58:52;;;;;;;15.40;10.13;;;3.20;99.90;;;;;;5065192;28;20208;-55
2021/12/04 15:01:23;;;;;;;14.52;10.23;;;3.30;99.90;;;;;;5063979;28;20281;-55
2021/12/04 15:03:58;;;;;;;20.08;10.65;;;3.30;99.90;;;;;;5072810;28;20254;-55
2021/12/04 15:06:28;;;;;;;13.27;10.20;;;3.20;99.90;;;;;;5081162;28;20203;-56
2021/12/04 15:09:05;;;;;;;15.52;9.30;;;3.10;99.90;;;;;;5080467;28;20269;-53
2021/12/04 15:11:34;;;;;;;16.88;9.95;;;3.00;99.90;;;;;;5080725;28;20460;-55
2021/12/04 15:14:09;;;;;;;18.33;9.63;;;3.00;99.90;;;;;;5080859;28;20454;-53
2021/12/04 15:16:45;;;;;;;12.15;8.13;;;3.00;99.90;;;;;;5080791;28;20241;-56
2021/12/04 15:19:17;;;;;;;13.32;9.18;;;3.10;99.90;;;;;;5080544;28;20196;-59
2021/12/04 15:21:50;;;;;;;14.77;9.23;;;3.20;99.90;;;;;;5062968;28;20215;-57
2021/12/04 15:24:23;;;;;;;14.38;7.57;;;3.20;99.90;;;;;;5073066;28;20199;-53
2021/12/04 15:26:57;;;;;;;10.00;6.78;;;3.00;99.90;;;;;;5044937;28;20204;-57
2021/12/04 15:29:29;;;;;;;13.10;8.35;;;2.80;99.90;;;;;;5070990;28;20207;-56
2021/12/04 15:32:00;;;;;;;12.70;8.18;;;2.80;99.90;;;;;;5069884;28;20622;-55
2021/12/04 15:35:01;;;;;;;13.35;8.75;;;2.70;99.90;;;;;;5078107;28;20231;-57
2021/12/04 15:37:49;;;;;;;11.18;7.40;;;2.70;99.90;;;;;;5061409;28;20457;-58
2021/12/04 15:40:27;;;;;;;11.00;7.53;;;2.60;99.90;;;;;;5050718;28;22045;-55
2021/12/04 15:43:11;;;;;;;13.93;8.13;;;2.60;99.90;;;;;;5061361;28;20208;-57
2021/12/04 15:46:04;;;;;;;16.45;10.32;;;2.30;99.90;;;;;;5060337;28;20277;-57
2021/12/04 15:51:33;;;;;;;16.42;9.85;;;2.30;99.90;;;;;;5071849;28;20266;-58
2021/12/04 15:54:06;;;;;;;16.20;10.10;;;2.20;99.90;;;;;;5073949;28;20248;-59
2021/12/04 15:56:42;;;;;;;12.27;9.68;;;2.10;99.90;;;;;;5080325;28;20418;-58
2021/12/04 15:59:20;;;;;;;15.15;10.30;;;2.10;99.90;;;;;;5080338;28;20194;-54
2021/12/04 16:01:52;;;;;;;14.60;10.27;;;2.10;99.90;;;;;;5077083;28;20309;-58
2021/12/04 16:04:31;;;;;;;20.48;12.82;;;2.20;99.90;;;;;;5058338;28;20508;-54
2021/12/04 16:07:01;;;;;;;14.40;10.93;;;2.10;99.90;;;;;;5080947;28;20237;-53
2021/12/04 16:09:31;;;;;;;20.20;12.95;;;2.10;99.90;;;;;;5079014;28;20439;-55
2021/12/04 16:12:03;;;;;;;19.38;12.90;;;2.10;99.90;;;;;;5072500;28;20275;-58
2021/12/04 16:14:33;;;;;;;24.00;12.05;;;2.20;99.90;;;;;;5071851;28;20552;-61
2021/12/04 16:17:03;;;;;;;27.10;14.55;;;2.20;99.90;;;;;;5079669;28;20202;-56
2021/12/04 16:19:33;;;;;;;27.35;16.27;;;2.20;99.90;;;;;;5069153;28;20237;-60
2021/12/04 16:22:02;;;;;;;29.40;16.20;;;2.30;99.90;;;;;;5073025;28;20218;-56
2021/12/04 16:24:31;;;;;;;31.40;19.15;;;2.30;99.90;;;;;;5078209;28;20207;-55
2021/12/04 16:27:25;;;;;;;26.52;14.50;;;2.40;99.90;;;;;;5065507;28;20234;-54
2021/12/04 16:29:56;;;;;;;33.65;19.50;;;2.40;99.90;;;;;;5080062;28;20215;-57
2021/12/04 16:40:23;;;;;;;22.85;14.05;;;2.60;99.90;;;;;;5078434;28;20555;-57
2021/12/04 16:43:01;;;;;;;31.55;15.63;;;2.60;99.90;;;;;;5086465;28;20195;-57
2021/12/04 16:45:31;;;;;;;29.00;15.73;;;2.50;99.90;;;;;;5084186;28;20252;-54
2021/12/04 16:48:05;;;;;;;35.72;18.02;;;2.50;99.90;;;;;;5079956;28;20202;-56